createdAt,value
2022-09-24T00:01:51.717Z,3.73
2022-09-24T00:04:38.822Z,3.57
2022-09-24T00:07:25.788Z,3.67
2022-09-24T00:10:12.781Z,3.60
2022-09-24T00:12:59.671Z,4.43
2022-09-24T00:15:49.564Z,3.87
2022-09-24T00:18:37.697Z,3.77
2022-09-24T00:21:30.726Z,3.90
2022-09-24T00:24:36.403Z,3.77
2022-09-24T00:27:23.346Z,4.00
2022-09-24T00:30:10.732Z,3.37
2022-09-24T00:33:00.358Z,3.90
2022-09-24T00:35:47.278Z,3.67
2022-09-24T00:38:34.605Z,4.20
2022-09-24T00:41:24.535Z,3.57
2022-09-24T00:44:42.639Z,4.10
2022-09-24T00:47:33.545Z,3.87
2022-09-24T00:50:31.591Z,3.40
2022-09-24T00:53:22.214Z,4.40
2022-09-24T00:56:15.502Z,3.13
2022-09-24T00:59:04.952Z,3.80
2022-09-24T01:01:53.945Z,3.90
2022-09-24T01:04:41.010Z,3.70
2022-09-24T01:07:27.914Z,3.80
2022-09-24T01:10:38.583Z,3.57
2022-09-24T01:13:55.521Z,3.63
2022-09-24T01:16:49.637Z,3.23
2022-09-24T01:20:04.171Z,3.80
2022-09-24T01:23:12.668Z,4.13
2022-09-24T01:26:29.802Z,4.10
2022-09-24T01:29:37.545Z,3.67
2022-09-24T01:32:38.184Z,3.87
2022-09-24T01:35:34.668Z,3.77
2022-09-24T01:38:28.305Z,3.63
2022-09-24T01:41:17.440Z,3.40
2022-09-24T01:44:06.960Z,3.80
2022-09-24T01:46:54.701Z,3.53
2022-09-24T01:49:41.712Z,3.80
2022-09-24T01:52:35.185Z,3.33
2022-09-24T01:55:27.259Z,3.50
2022-09-24T01:58:20.374Z,3.63
2022-09-24T02:01:12.713Z,3.23
2022-09-24T02:04:09.242Z,3.60
2022-09-24T02:07:07.173Z,3.53
2022-09-24T02:09:54.110Z,3.37
2022-09-24T02:12:43.883Z,3.20
2022-09-24T02:15:35.634Z,3.27
2022-09-24T02:18:28.466Z,3.57
2022-09-24T02:21:18.501Z,3.30
2022-09-24T02:24:10.135Z,3.00
2022-09-24T02:26:57.433Z,3.30
2022-09-24T02:29:44.413Z,3.67
2022-09-24T02:32:34.276Z,3.40
2022-09-24T02:35:21.832Z,3.17
2022-09-24T02:38:16.358Z,3.10
2022-09-24T02:41:07.455Z,3.63
2022-09-24T02:43:54.392Z,3.73
2022-09-24T02:46:41.748Z,3.40
2022-09-24T02:49:29.047Z,3.17
2022-09-24T02:52:16.148Z,3.17
2022-09-24T02:55:03.433Z,3.57
2022-09-24T02:57:50.351Z,3.40
2022-09-24T03:00:37.290Z,3.47
2022-09-24T03:03:24.816Z,3.03
2022-09-24T03:06:14.810Z,3.53
2022-09-24T03:09:03.335Z,3.60
2022-09-24T03:11:50.264Z,3.80
2022-09-24T03:14:37.339Z,3.27
2022-09-24T03:17:24.277Z,3.67
2022-09-24T03:20:11.213Z,3.87
2022-09-24T03:22:58.152Z,3.53
2022-09-24T03:25:45.059Z,3.17
2022-09-24T03:28:32.175Z,3.00
2022-09-24T03:31:19.272Z,3.80
2022-09-24T03:34:06.346Z,3.23
2022-09-24T03:36:53.264Z,3.50
2022-09-24T03:39:40.224Z,3.63
2022-09-24T03:42:27.144Z,2.90
2022-09-24T03:45:14.138Z,3.43
2022-09-24T03:48:01.512Z,3.53
2022-09-24T03:50:48.985Z,3.70
2022-09-24T03:53:35.940Z,3.37
2022-09-24T03:56:22.877Z,3.67
2022-09-24T03:59:11.029Z,3.50
2022-09-24T04:01:58.019Z,3.43
2022-09-24T04:04:44.953Z,3.30
2022-09-24T04:07:32.049Z,3.93
2022-09-24T04:10:18.977Z,3.63
2022-09-24T04:13:06.156Z,3.50
2022-09-24T04:15:53.787Z,3.50
2022-09-24T04:18:40.815Z,3.60
2022-09-24T04:21:27.724Z,3.20
2022-09-24T04:24:14.804Z,3.50
2022-09-24T04:27:01.765Z,3.40
2022-09-24T04:29:48.780Z,3.40
2022-09-24T04:32:35.892Z,3.63
2022-09-24T04:35:23.993Z,3.67
2022-09-24T04:38:11.132Z,3.67
2022-09-24T04:41:08.515Z,3.30
2022-09-24T04:43:57.220Z,3.70
2022-09-24T04:46:44.198Z,3.40
2022-09-24T04:49:31.235Z,3.50
2022-09-24T04:52:18.199Z,3.23
2022-09-24T04:55:05.764Z,3.57
2022-09-24T04:57:55.837Z,3.70
2022-09-24T05:00:43.192Z,3.33
2022-09-24T05:03:30.259Z,3.20
2022-09-24T05:06:17.335Z,3.23
2022-09-24T05:09:06.194Z,3.67
2022-09-24T05:11:55.954Z,3.43
2022-09-24T05:14:43.141Z,4.00
2022-09-24T05:17:30.099Z,3.57
2022-09-24T05:20:17.233Z,3.60
2022-09-24T05:23:05.313Z,3.53
2022-09-24T05:26:10.932Z,3.57
2022-09-24T05:28:57.866Z,3.63
2022-09-24T05:31:45.147Z,4.00
2022-09-24T05:34:32.761Z,3.83
2022-09-24T05:37:20.083Z,3.20
2022-09-24T05:40:26.818Z,3.30
2022-09-24T05:43:14.588Z,3.33
2022-09-24T05:46:01.618Z,3.60
2022-09-24T05:48:49.632Z,3.70
2022-09-24T05:51:36.531Z,3.57
2022-09-24T05:54:23.765Z,3.80
2022-09-24T05:57:10.676Z,3.60
2022-09-24T05:59:57.616Z,3.90
2022-09-24T06:02:44.551Z,3.57
2022-09-24T06:05:31.508Z,3.87
2022-09-24T06:08:20.110Z,3.67
2022-09-24T06:11:08.486Z,3.33
2022-09-24T06:13:55.403Z,4.00
2022-09-24T06:16:42.345Z,3.70
2022-09-24T06:19:29.365Z,3.97
2022-09-24T06:22:16.270Z,4.03
2022-09-24T06:25:03.460Z,3.90
2022-09-24T06:27:58.152Z,4.23
2022-09-24T06:30:45.420Z,4.10
2022-09-24T06:33:32.669Z,4.10
2022-09-24T06:36:19.649Z,4.03
2022-09-24T06:39:07.565Z,4.50
2022-09-24T06:41:54.563Z,4.10
2022-09-24T06:44:42.439Z,4.23
2022-09-24T06:47:30.164Z,4.37
2022-09-24T06:50:17.118Z,4.20
2022-09-24T06:53:06.360Z,4.50
2022-09-24T06:55:56.995Z,4.13
2022-09-24T06:58:43.934Z,4.27
2022-09-24T07:01:30.943Z,4.40
2022-09-24T07:04:18.074Z,4.57
2022-09-24T07:07:24.699Z,4.30
2022-09-24T07:10:11.827Z,4.53
2022-09-24T07:12:58.742Z,4.30
2022-09-24T07:15:45.848Z,5.10
2022-09-24T07:18:32.792Z,4.23
2022-09-24T07:21:19.865Z,4.30
2022-09-24T07:24:07.123Z,4.60
2022-09-24T07:26:54.420Z,4.93
2022-09-24T07:29:41.366Z,4.37
2022-09-24T07:32:30.104Z,4.70
2022-09-24T07:35:18.877Z,4.63
2022-09-24T07:38:12.283Z,5.10
2022-09-24T07:40:59.541Z,5.37
2022-09-24T07:43:46.560Z,5.20
2022-09-24T07:46:33.788Z,4.70
2022-09-24T07:49:21.078Z,4.87
2022-09-24T07:52:08.343Z,4.93
2022-09-24T07:54:55.531Z,4.83
2022-09-24T07:57:47.603Z,4.87
2022-09-24T08:00:34.988Z,4.33
2022-09-24T08:03:22.095Z,5.00
2022-09-24T08:06:09.614Z,4.67
2022-09-24T08:08:57.075Z,4.60
2022-09-24T08:11:44.518Z,5.07
2022-09-24T08:14:31.791Z,5.00
2022-09-24T08:17:18.891Z,4.33
2022-09-24T08:20:06.323Z,4.83
2022-09-24T08:22:53.276Z,4.60
2022-09-24T08:25:40.192Z,5.20
2022-09-24T08:28:27.212Z,4.83
2022-09-24T08:31:14.291Z,5.13
2022-09-24T08:34:01.495Z,5.07
2022-09-24T08:36:50.250Z,4.90
2022-09-24T08:39:37.209Z,5.33
2022-09-24T08:42:50.866Z,5.00
2022-09-24T08:46:04.751Z,5.20
2022-09-24T08:48:53.477Z,5.43
2022-09-24T08:51:51.143Z,5.00
2022-09-24T08:54:38.703Z,5.47
2022-09-24T08:57:27.014Z,4.93
2022-09-24T09:00:14.970Z,5.40
2022-09-24T09:03:10.000Z,5.13
2022-09-24T09:06:03.644Z,6.20
2022-09-24T09:09:07.166Z,5.33
2022-09-24T09:12:06.724Z,4.90
2022-09-24T09:15:04.658Z,5.20
2022-09-24T09:18:01.622Z,5.03
2022-09-24T09:20:49.557Z,5.40
2022-09-24T09:23:42.163Z,5.40
2022-09-24T09:26:29.093Z,5.17
2022-09-24T09:29:16.773Z,5.00
2022-09-24T09:32:06.652Z,4.93
2022-09-24T09:35:21.313Z,5.97
2022-09-24T09:38:25.083Z,5.07
2022-09-24T09:41:24.364Z,5.27
2022-09-24T09:44:26.269Z,6.13
2022-09-24T09:47:37.143Z,5.97
2022-09-24T09:50:44.355Z,5.77
2022-09-24T09:53:32.017Z,6.30
2022-09-24T09:56:24.556Z,6.37
2022-09-24T09:59:11.409Z,6.10
2022-09-24T10:01:58.544Z,6.20
2022-09-24T10:04:45.615Z,6.07
2022-09-24T10:07:32.702Z,6.60
2022-09-24T10:10:24.848Z,6.50
2022-09-24T10:13:12.936Z,6.27
2022-09-24T10:16:03.871Z,6.43
2022-09-24T10:18:51.280Z,6.40
2022-09-24T10:21:38.280Z,7.20
2022-09-24T10:24:27.537Z,6.57
2022-09-24T10:27:27.899Z,6.83
2022-09-24T10:30:35.111Z,6.80
2022-09-24T10:33:22.636Z,9.00
2022-09-24T10:36:26.037Z,8.50
2022-09-24T10:39:16.154Z,8.37
2022-09-24T10:42:03.115Z,8.53
2022-09-24T10:44:52.825Z,9.00
2022-09-24T10:47:57.462Z,8.13
2022-09-24T10:51:21.510Z,9.67
2022-09-24T10:54:18.850Z,9.40
2022-09-24T10:57:39.054Z,8.90
2022-09-24T11:00:38.654Z,8.70
2022-09-24T11:03:50.808Z,11.17
2022-09-24T11:07:15.018Z,11.30
2022-09-24T11:10:32.431Z,13.27
2022-09-24T11:13:43.016Z,14.17
2022-09-24T11:16:48.865Z,12.90
2022-09-24T11:20:03.184Z,11.70
2022-09-24T11:23:19.568Z,13.50
2022-09-24T11:26:24.447Z,12.83
2022-09-24T11:29:22.029Z,13.93
2022-09-24T11:32:19.336Z,15.03
2022-09-24T11:35:24.938Z,9.70
2022-09-24T11:38:35.034Z,9.00
2022-09-24T11:41:57.562Z,8.83
2022-09-24T11:45:05.610Z,8.20
2022-09-24T11:48:29.909Z,7.07
2022-09-24T11:51:49.577Z,7.53
2022-09-24T11:54:42.908Z,7.63
2022-09-24T11:57:37.378Z,7.00
2022-09-24T12:00:32.478Z,8.33
2022-09-24T12:03:25.099Z,7.97
2022-09-24T12:06:24.576Z,7.77
2022-09-24T12:09:31.152Z,8.03
2022-09-24T12:12:28.998Z,7.40
2022-09-24T12:15:30.786Z,7.63
2022-09-24T12:18:27.843Z,7.67
2022-09-24T12:21:22.306Z,7.57
2022-09-24T12:24:18.939Z,7.07
2022-09-24T12:27:20.850Z,7.20
2022-09-24T12:30:52.068Z,6.50
2022-09-24T12:34:19.374Z,6.73
2022-09-24T12:37:12.767Z,7.13
2022-09-24T12:40:11.951Z,7.10
2022-09-24T12:43:01.753Z,6.80
2022-09-24T12:45:58.876Z,7.47
2022-09-24T12:48:48.025Z,7.87
2022-09-24T12:51:37.572Z,7.17
2022-09-24T12:54:32.318Z,8.17
2022-09-24T12:57:25.996Z,7.93
2022-09-24T13:00:31.845Z,7.43
2022-09-24T13:03:47.495Z,7.30
2022-09-24T13:06:37.608Z,7.30
2022-09-24T13:09:39.167Z,7.57
2022-09-24T13:12:33.320Z,7.73
2022-09-24T13:15:29.894Z,7.20
2022-09-24T13:18:25.067Z,6.97
2022-09-24T13:21:24.172Z,7.10
2022-09-24T13:24:11.851Z,7.60
2022-09-24T13:27:10.383Z,7.60
2022-09-24T13:30:09.650Z,7.93
2022-09-24T13:33:19.563Z,7.63
2022-09-24T13:36:23.248Z,7.50
2022-09-24T13:39:22.277Z,7.80
2022-09-24T13:42:20.455Z,7.77
2022-09-24T13:45:15.896Z,7.80
2022-09-24T13:48:05.866Z,8.50
2022-09-24T13:50:53.504Z,7.60
2022-09-24T13:54:34.700Z,7.60
2022-09-24T13:57:25.542Z,7.53
2022-09-24T14:00:19.837Z,7.03
2022-09-24T14:03:26.076Z,7.77
2022-09-24T14:06:15.513Z,7.87
2022-09-24T14:09:02.680Z,8.17
2022-09-24T14:11:52.183Z,7.67
2022-09-24T14:14:45.545Z,7.90
2022-09-24T14:17:32.500Z,8.67
2022-09-24T14:20:20.030Z,7.40
2022-09-24T14:23:14.404Z,7.37
2022-09-24T14:26:02.134Z,7.60
2022-09-24T14:28:49.451Z,7.47
2022-09-24T14:31:48.212Z,7.70
2022-09-24T14:34:43.295Z,8.70
2022-09-24T14:37:46.495Z,9.30
2022-09-24T14:40:54.842Z,8.50
2022-09-24T14:43:47.368Z,7.77
2022-09-24T14:46:48.546Z,8.17
2022-09-24T14:49:45.198Z,8.77
2022-09-24T14:52:33.481Z,8.57
2022-09-24T14:55:22.019Z,8.20
2022-09-24T14:58:36.138Z,8.07
2022-09-24T15:01:30.788Z,9.03
2022-09-24T15:04:29.061Z,8.57
2022-09-24T15:07:22.697Z,8.40
2022-09-24T15:10:21.271Z,10.13
2022-09-24T15:13:19.370Z,9.47
2022-09-24T15:16:29.364Z,8.87
2022-09-24T15:19:36.234Z,9.73
2022-09-24T15:22:26.621Z,8.87
2022-09-24T15:25:14.608Z,11.07
2022-09-24T15:28:02.225Z,20.40
2022-09-24T15:30:49.170Z,19.70
2022-09-24T15:33:36.137Z,15.13
2022-09-24T15:36:23.865Z,11.97
2022-09-24T15:39:19.044Z,11.53
2022-09-24T15:42:05.959Z,10.20
2022-09-24T15:44:55.951Z,10.50
2022-09-24T15:47:42.876Z,10.23
2022-09-24T15:50:31.306Z,9.53
2022-09-24T15:53:21.323Z,9.80
2022-09-24T15:56:08.248Z,9.63
2022-09-24T15:58:55.702Z,10.00
2022-09-24T16:01:42.969Z,8.50
2022-09-24T16:04:29.971Z,8.40
2022-09-24T16:07:17.500Z,8.90
2022-09-24T16:10:04.766Z,9.20
2022-09-24T16:12:51.683Z,8.97
2022-09-24T16:15:39.588Z,10.07
2022-09-24T16:18:26.786Z,9.33
2022-09-24T16:21:13.815Z,9.47
2022-09-24T16:24:01.311Z,9.70
2022-09-24T16:26:48.220Z,9.53
2022-09-24T16:29:35.123Z,9.13
2022-09-24T16:32:22.066Z,9.20
2022-09-24T16:35:11.150Z,9.40
2022-09-24T16:37:58.055Z,9.47
2022-09-24T16:40:45.094Z,8.97
2022-09-24T16:43:32.365Z,8.63
2022-09-24T16:46:20.829Z,8.53
2022-09-24T16:49:08.079Z,8.20
2022-09-24T16:51:55.849Z,9.27
2022-09-24T16:54:42.825Z,35.40
2022-09-24T16:57:30.104Z,28.63
2022-09-24T17:00:17.109Z,37.90
2022-09-24T17:03:04.251Z,31.73
2022-09-24T17:05:51.222Z,28.20
2022-09-24T17:08:56.896Z,44.17
2022-09-24T17:11:46.627Z,23.50
2022-09-24T17:14:35.962Z,14.33
2022-09-24T17:17:23.055Z,11.80
2022-09-24T17:20:10.748Z,9.53
2022-09-24T17:22:57.659Z,9.50
2022-09-24T17:25:44.575Z,9.00
2022-09-24T17:28:35.831Z,10.07
2022-09-24T17:31:24.732Z,9.13
2022-09-24T17:34:12.447Z,9.37
2022-09-24T17:36:59.790Z,8.77
2022-09-24T17:39:46.782Z,9.00
2022-09-24T17:42:33.935Z,8.43
2022-09-24T17:45:22.090Z,8.90
2022-09-24T17:48:09.012Z,9.37
2022-09-24T17:51:00.523Z,8.90
2022-09-24T17:53:47.573Z,9.40
2022-09-24T17:56:38.796Z,8.97
2022-09-24T17:59:27.171Z,8.30
2022-09-24T18:02:14.259Z,8.57
2022-09-24T18:05:01.209Z,8.87
2022-09-24T18:07:48.134Z,8.87
2022-09-24T18:10:35.764Z,9.53
2022-09-24T18:13:22.973Z,10.23
2022-09-24T18:16:15.274Z,10.40
2022-09-24T18:19:03.237Z,9.10
2022-09-24T18:21:50.449Z,8.80
2022-09-24T18:24:37.429Z,8.57
2022-09-24T18:27:24.337Z,7.50
2022-09-24T18:30:11.678Z,9.57
2022-09-24T18:32:58.630Z,43.27
2022-09-24T18:35:45.548Z,23.83
2022-09-24T18:38:33.047Z,21.70
2022-09-24T18:41:25.786Z,10.90
2022-09-24T18:44:12.833Z,8.63
2022-09-24T18:46:59.755Z,9.67
2022-09-24T18:49:46.666Z,12.87
2022-09-24T18:52:34.154Z,10.07
2022-09-24T18:55:21.221Z,8.67
2022-09-24T18:58:10.875Z,9.07
2022-09-24T19:00:59.225Z,8.37
2022-09-24T19:03:46.365Z,8.97
2022-09-24T19:06:35.201Z,9.13
2022-09-24T19:09:22.265Z,7.97
2022-09-24T19:12:09.617Z,10.03
2022-09-24T19:14:57.636Z,8.23
2022-09-24T19:17:44.559Z,8.27
2022-09-24T19:20:31.501Z,10.83
2022-09-24T19:23:18.379Z,10.17
2022-09-24T19:26:07.131Z,10.43
2022-09-24T19:28:54.769Z,10.90
2022-09-24T19:31:45.421Z,11.03
2022-09-24T19:34:32.342Z,10.83
2022-09-24T19:37:19.340Z,10.93
2022-09-24T19:40:07.283Z,9.80
2022-09-24T19:42:54.469Z,11.03
2022-09-24T19:45:41.362Z,10.13
2022-09-24T19:48:30.386Z,11.67
2022-09-24T19:51:22.312Z,11.10
2022-09-24T19:54:10.498Z,11.40
2022-09-24T19:56:57.595Z,11.37
2022-09-24T19:59:44.667Z,11.20
2022-09-24T20:02:31.626Z,9.97
2022-09-24T20:05:18.566Z,10.23
2022-09-24T20:08:05.471Z,12.87
2022-09-24T20:10:52.647Z,13.73
2022-09-24T20:13:46.033Z,14.63
2022-09-24T20:16:33.448Z,13.23
2022-09-24T20:19:22.038Z,13.10
2022-09-24T20:22:09.168Z,13.20
2022-09-24T20:24:56.118Z,13.80
2022-09-24T20:27:52.051Z,14.87
2022-09-24T20:30:39.036Z,13.90
2022-09-24T20:33:26.733Z,14.53
2022-09-24T20:36:16.022Z,13.40
2022-09-24T20:39:04.320Z,14.43
2022-09-24T20:41:51.282Z,13.30
2022-09-24T20:44:38.264Z,13.33
2022-09-24T20:47:26.057Z,13.33
2022-09-24T20:50:13.018Z,13.43
2022-09-24T20:53:00.026Z,13.90
2022-09-24T20:55:46.937Z,13.83
2022-09-24T20:58:33.903Z,15.03
2022-09-24T21:01:22.296Z,14.17
2022-09-24T21:04:09.356Z,12.43
2022-09-24T21:06:56.306Z,14.30
2022-09-24T21:09:43.208Z,13.00
2022-09-24T21:12:30.325Z,13.87
2022-09-24T21:15:17.308Z,12.73
2022-09-24T21:18:22.149Z,12.87
2022-09-24T21:21:17.104Z,12.33
2022-09-24T21:24:07.171Z,11.80
2022-09-24T21:26:57.311Z,13.07
2022-09-24T21:29:44.948Z,12.77
2022-09-24T21:32:31.871Z,12.37
2022-09-24T21:35:18.779Z,13.17
2022-09-24T21:38:05.654Z,13.20
2022-09-24T21:40:56.800Z,11.97
2022-09-24T21:43:43.707Z,11.60
2022-09-24T21:46:33.376Z,11.07
2022-09-24T21:49:20.595Z,12.40
2022-09-24T21:52:07.953Z,11.37
2022-09-24T21:54:55.074Z,11.57
2022-09-24T21:57:42.026Z,13.03
2022-09-24T22:00:28.931Z,12.17
2022-09-24T22:03:16.090Z,12.40
2022-09-24T22:06:03.604Z,12.10
2022-09-24T22:08:51.223Z,11.93
2022-09-24T22:11:38.293Z,12.87
2022-09-24T22:14:25.392Z,12.40
2022-09-24T22:17:13.340Z,11.83
2022-09-24T22:20:00.470Z,11.47
2022-09-24T22:22:47.380Z,11.87
2022-09-24T22:25:34.303Z,11.43
2022-09-24T22:28:24.364Z,11.93
2022-09-24T22:31:14.369Z,11.70
2022-09-24T22:34:19.898Z,12.60
2022-09-24T22:37:07.460Z,12.97
2022-09-24T22:39:54.362Z,13.00
2022-09-24T22:42:41.305Z,12.53
2022-09-24T22:45:28.305Z,12.87
2022-09-24T22:48:15.191Z,11.67
2022-09-24T22:51:04.165Z,11.50
2022-09-24T22:53:53.651Z,11.27
2022-09-24T22:56:40.603Z,10.90
2022-09-24T22:59:27.487Z,12.40
2022-09-24T23:02:14.413Z,11.83
2022-09-24T23:05:01.428Z,12.23
2022-09-24T23:07:48.406Z,13.73
2022-09-24T23:10:35.327Z,13.07
2022-09-24T23:13:22.247Z,12.47
2022-09-24T23:16:14.907Z,12.50
2022-09-24T23:19:05.756Z,13.07
2022-09-24T23:21:52.674Z,11.80
2022-09-24T23:24:40.099Z,11.93
2022-09-24T23:27:27.022Z,13.20
2022-09-24T23:30:13.980Z,12.57
2022-09-24T23:33:00.872Z,12.33
2022-09-24T23:35:53.360Z,12.97
2022-09-24T23:38:41.605Z,12.30
2022-09-24T23:41:30.858Z,12.90
2022-09-24T23:44:17.895Z,13.77
2022-09-24T23:47:04.862Z,13.90
2022-09-24T23:49:51.842Z,12.47
2022-09-24T23:52:38.738Z,13.10
2022-09-24T23:55:25.671Z,13.53
2022-09-24T23:58:17.313Z,13.83
